Great Hebei — VRFU6 — position and weather

sailwx.info

Track history (hours):
 
Tides and Currents Weather Stations Pressure Air Temp Water Temp Dewpoint Dewpoint Depression Visibility Wind Speed Wind Dir Waves Ship Positions

Great Hebei

Last reported at 2016-Apr-23 12:09 UTC. Time now 2016-May-03 23:55 UTC.
Position N 23°35' E 117°50'.
Warning: this ship's position is 10 days out of date.

Length 295 m; draft 8.6 m.

Type: Cargo ship. MMSI: 477617100.

Date/timePositionNaut miles runAvg speedWind from/ knotsBaromVisibWave heightAir tempDewpointWater temp
2016-Apr-23 12:09N 23°35' E 117°50'5 8.8
2016-Apr-23 11:31N 23°39' E 117°54'9 9.3
2016-Apr-23 10:31N 23°46' E 118°01'9 9.3
2016-Apr-23 09:33N 23°52' E 118°09'11 9.8
2016-Apr-23 08:23N 24°00' E 118°18'910.5
2016-Apr-23 07:33N 24°09' E 118°19'10 9.0
2016-Apr-23 06:29N 24°18' E 118°17'0 0.1
2016-Apr-23 03:16N 24°18' E 118°17'0 0.1
2016-Apr-23 01:34N 24°18' E 118°17'0 0.1
2016-Apr-22 23:16N 24°18' E 118°17'0 0.0
2016-Apr-22 22:22N 24°18' E 118°17'0 0.0
2016-Apr-22 21:10N 24°18' E 118°17'0 0.1
2016-Apr-22 20:22N 24°18' E 118°17'0 0.1
2016-Apr-22 19:34N 24°18' E 118°17'0 0.1
2016-Apr-22 18:28N 24°18' E 118°17'0 0.1
2016-Apr-22 17:22N 24°18' E 118°17'0 0.0
2016-Apr-22 09:33N 24°18' E 118°17'0 0.1
2016-Apr-22 08:03N 24°18' E 118°17'0 0.1
2016-Apr-22 07:04N 24°18' E 118°17'0 0.1
2016-Apr-22 06:21N 24°18' E 118°17'0 0.1
2016-Apr-22 04:33N 24°18' E 118°17'0 0.0
2016-Apr-22 03:21N 24°18' E 118°17'0 0.5
2016-Apr-22 02:33N 24°19' E 118°17'8 8.3
2016-Apr-22 01:33N 24°21' E 118°26'1510.2
2016-Apr-22 00:06N 24°21' E 118°42'810.6
2016-Apr-21 23:20N 24°26' E 118°50'910.1
2016-Apr-21 22:29N 24°31' E 118°57'1010.5
2016-Apr-21 21:33N 24°36' E 119°06'1010.1
2016-Apr-21 20:31N 24°41' E 119°16'1110.1
2016-Apr-21 19:28N 24°47' E 119°26'411 8.2
2016-Apr-19 17:21N 31°15' E 121°59'1011.3
2016-Apr-19 16:28N 31°17' E 121°48'9 9.5
2016-Apr-19 15:33N 31°21' E 121°39'10 9.9
2016-Apr-19 14:34N 31°26' E 121°29'5 4.7
2016-Apr-19 13:33N 31°30' E 121°25'8 8.4
2016-Apr-19 12:33N 31°35' E 121°18'1110.7
2016-Apr-19 11:33N 31°42' E 121°08'1311.9
2016-Apr-19 10:29N 31°48' E 120°55'1212.3
2016-Apr-19 09:33N 31°59' E 120°50'1311.2
2016-Apr-19 08:24N 32°00' E 120°35'  
2016-Apr-17 00:23N 31°46' E 121°02'1112.6
2016-Apr-16 23:31N 31°40' E 121°12'8 7.8
2016-Apr-16 22:30N 31°35' E 121°19'0 0.0
2016-Apr-16 21:30N 31°35' E 121°19'0 0.0
2016-Apr-16 20:30N 31°35' E 121°19'0 0.0
2016-Apr-16 19:27N 31°35' E 121°19'0 0.1
2016-Apr-16 18:24N 31°35' E 121°19'0 0.0
2016-Apr-16 17:30N 31°35' E 121°19'0 0.0
2016-Apr-16 16:24N 31°35' E 121°19'0 0.0
2016-Apr-16 15:33N 31°35' E 121°19'0 0.0
2016-Apr-16 14:30N 31°35' E 121°19'0 0.0
2016-Apr-16 13:33N 31°35' E 121°19'0 0.0
2016-Apr-16 12:33N 31°35' E 121°19'0 0.0
2016-Apr-16 11:30N 31°35' E 121°19'0 0.1
2016-Apr-16 10:33N 31°35' E 121°19'0 0.0
2016-Apr-16 09:30N 31°35' E 121°19'0 0.1
2016-Apr-16 08:27N 31°35' E 121°19'0 0.0
2016-Apr-16 07:30N 31°35' E 121°19'0 0.0
2016-Apr-16 06:30N 31°35' E 121°19'0 0.1
2016-Apr-16 05:33N 31°35' E 121°19'0 0.1
2016-Apr-16 04:21N 31°35' E 121°19'0 0.1
2016-Apr-16 03:33N 31°35' E 121°19'0 0.1
2016-Apr-16 02:33N 31°35' E 121°19'0 0.2
2016-Apr-16 01:33N 31°35' E 121°19'5 5.4
2016-Apr-16 00:34N 31°31' E 121°23'1110.7
2016-Apr-15 23:33N 31°24' E 121°33'1110.7
2016-Apr-15 22:33N 31°19' E 121°44'1111.2
2016-Apr-15 21:33N 31°15' E 121°56'37 1.1
2016-Apr-14 13:11N 31°09' E 122°39'0 0.0
2016-Apr-14 06:14N 31°10' E 122°39'0 0.1
2016-Apr-14 04:32N 31°09' E 122°38'0 0.2
2016-Apr-14 03:32N 31°09' E 122°39'0 0.1
2016-Apr-14 01:05N 31°09' E 122°39'0 0.0
2016-Apr-14 00:32N 31°09' E 122°39'  
Track history (hours):
 
Tides and Currents Weather Stations Pressure Air Temp Water Temp Dewpoint Dewpoint Depression Visibility Wind Speed Wind Dir Waves Ship Positions

Great Hebei

Last reported at 2016-Apr-23 12:09 UTC. Time now 2016-May-03 23:55 UTC.
Position N 23°35' E 117°50'.
Warning: this ship's position is 10 days out of date.

Length 295 m; draft 8.6 m.

Type: Cargo ship. MMSI: 477617100.

Date/timePositionNaut miles runAvg speedWind from/ knotsBaromVisibWave heightAir tempDewpointWater temp
2016-Apr-23 12:09N 23°35' E 117°50'5 8.8
2016-Apr-23 11:31N 23°39' E 117°54'9 9.3
2016-Apr-23 10:31N 23°46' E 118°01'9 9.3
2016-Apr-23 09:33N 23°52' E 118°09'11 9.8
2016-Apr-23 08:23N 24°00' E 118°18'910.5
2016-Apr-23 07:33N 24°09' E 118°19'10 9.0
2016-Apr-23 06:29N 24°18' E 118°17'0 0.1
2016-Apr-23 03:16N 24°18' E 118°17'0 0.1
2016-Apr-23 01:34N 24°18' E 118°17'0 0.1
2016-Apr-22 23:16N 24°18' E 118°17'0 0.0
2016-Apr-22 22:22N 24°18' E 118°17'0 0.0
2016-Apr-22 21:10N 24°18' E 118°17'0 0.1
2016-Apr-22 20:22N 24°18' E 118°17'0 0.1
2016-Apr-22 19:34N 24°18' E 118°17'0 0.1
2016-Apr-22 18:28N 24°18' E 118°17'0 0.1
2016-Apr-22 17:22N 24°18' E 118°17'0 0.0
2016-Apr-22 09:33N 24°18' E 118°17'0 0.1
2016-Apr-22 08:03N 24°18' E 118°17'0 0.1
2016-Apr-22 07:04N 24°18' E 118°17'0 0.1
2016-Apr-22 06:21N 24°18' E 118°17'0 0.1
2016-Apr-22 04:33N 24°18' E 118°17'0 0.0
2016-Apr-22 03:21N 24°18' E 118°17'0 0.5
2016-Apr-22 02:33N 24°19' E 118°17'8 8.3
2016-Apr-22 01:33N 24°21' E 118°26'1510.2
2016-Apr-22 00:06N 24°21' E 118°42'810.6
2016-Apr-21 23:20N 24°26' E 118°50'910.1
2016-Apr-21 22:29N 24°31' E 118°57'1010.5
2016-Apr-21 21:33N 24°36' E 119°06'1010.1
2016-Apr-21 20:31N 24°41' E 119°16'1110.1
2016-Apr-21 19:28N 24°47' E 119°26'411 8.2
2016-Apr-19 17:21N 31°15' E 121°59'1011.3
2016-Apr-19 16:28N 31°17' E 121°48'9 9.5
2016-Apr-19 15:33N 31°21' E 121°39'10 9.9
2016-Apr-19 14:34N 31°26' E 121°29'5 4.7
2016-Apr-19 13:33N 31°30' E 121°25'8 8.4
2016-Apr-19 12:33N 31°35' E 121°18'1110.7
2016-Apr-19 11:33N 31°42' E 121°08'1311.9
2016-Apr-19 10:29N 31°48' E 120°55'1212.3
2016-Apr-19 09:33N 31°59' E 120°50'1311.2
2016-Apr-19 08:24N 32°00' E 120°35'  
2016-Apr-17 00:23N 31°46' E 121°02'1112.6
2016-Apr-16 23:31N 31°40' E 121°12'8 7.8
2016-Apr-16 22:30N 31°35' E 121°19'0 0.0
2016-Apr-16 21:30N 31°35' E 121°19'0 0.0
2016-Apr-16 20:30N 31°35' E 121°19'0 0.0
2016-Apr-16 19:27N 31°35' E 121°19'0 0.1
2016-Apr-16 18:24N 31°35' E 121°19'0 0.0
2016-Apr-16 17:30N 31°35' E 121°19'0 0.0
2016-Apr-16 16:24N 31°35' E 121°19'0 0.0
2016-Apr-16 15:33N 31°35' E 121°19'0 0.0
2016-Apr-16 14:30N 31°35' E 121°19'0 0.0
2016-Apr-16 13:33N 31°35' E 121°19'0 0.0
2016-Apr-16 12:33N 31°35' E 121°19'0 0.0
2016-Apr-16 11:30N 31°35' E 121°19'0 0.1
2016-Apr-16 10:33N 31°35' E 121°19'0 0.0
2016-Apr-16 09:30N 31°35' E 121°19'0 0.1
2016-Apr-16 08:27N 31°35' E 121°19'0 0.0
2016-Apr-16 07:30N 31°35' E 121°19'0 0.0
2016-Apr-16 06:30N 31°35' E 121°19'0 0.1
2016-Apr-16 05:33N 31°35' E 121°19'0 0.1
2016-Apr-16 04:21N 31°35' E 121°19'0 0.1
2016-Apr-16 03:33N 31°35' E 121°19'0 0.1
2016-Apr-16 02:33N 31°35' E 121°19'0 0.2
2016-Apr-16 01:33N 31°35' E 121°19'5 5.4
2016-Apr-16 00:34N 31°31' E 121°23'1110.7
2016-Apr-15 23:33N 31°24' E 121°33'1110.7
2016-Apr-15 22:33N 31°19' E 121°44'1111.2
2016-Apr-15 21:33N 31°15' E 121°56'37 1.1
2016-Apr-14 13:11N 31°09' E 122°39'0 0.0
2016-Apr-14 06:14N 31°10' E 122°39'0 0.1
2016-Apr-14 04:32N 31°09' E 122°38'0 0.2
2016-Apr-14 03:32N 31°09' E 122°39'0 0.1
2016-Apr-14 01:05N 31°09' E 122°39'0 0.0
2016-Apr-14 00:32N 31°09' E 122°39'  

Dump ship's entire track history